sensor_id;sensor_type;location;lat;lon;timestamp;pressure;altitude;pressure_sealevel;temperature;humidity
6345;BME280;3205;42.666;23.264;2023-02-13T00:01:00;96076.94;;;-1.39;100.00
6345;BME280;3205;42.666;23.264;2023-02-13T00:03:28;96083.78;;;-1.27;100.00
6345;BME280;3205;42.666;23.264;2023-02-13T00:05:54;96082.06;;;-1.50;100.00
6345;BME280;3205;42.666;23.264;2023-02-13T00:08:20;96073.41;;;-1.62;100.00
6345;BME280;3205;42.666;23.264;2023-02-13T00:10:46;96093.06;;;-1.55;100.00
6345;BME280;3205;42.666;23.264;2023-02-13T00:13:14;96076.59;;;-1.60;100.00
6345;BME280;3205;42.666;23.264;2023-02-13T00:15:41;96080.63;;;-1.64;100.00
6345;BME280;3205;42.666;23.264;2023-02-13T00:18:07;96081.13;;;-1.74;100.00
6345;BME280;3205;42.666;23.264;2023-02-13T00:20:34;96082.34;;;-1.76;100.00
6345;BME280;3205;42.666;23.264;2023-02-13T00:23:01;96082.22;;;-1.81;100.00
6345;BME280;3205;42.666;23.264;2023-02-13T00:25:27;96084.78;;;-1.81;100.00
6345;BME280;3205;42.666;23.264;2023-02-13T00:27:53;96079.16;;;-1.78;100.00
6345;BME280;3205;42.666;23.264;2023-02-13T00:30:20;96087.75;;;-1.60;100.00
6345;BME280;3205;42.666;23.264;2023-02-13T00:32:49;96096.34;;;-1.59;100.00
6345;BME280;3205;42.666;23.264;2023-02-13T00:35:15;96090.13;;;-1.58;100.00
6345;BME280;3205;42.666;23.264;2023-02-13T00:37:42;96093.22;;;-1.50;100.00
6345;BME280;3205;42.666;23.264;2023-02-13T00:40:09;96089.91;;;-1.39;100.00
6345;BME280;3205;42.666;23.264;2023-02-13T00:42:35;96090.78;;;-1.45;100.00
6345;BME280;3205;42.666;23.264;2023-02-13T00:45:01;96095.03;;;-1.50;100.00
6345;BME280;3205;42.666;23.264;2023-02-13T00:47:27;96093.22;;;-1.50;100.00
6345;BME280;3205;42.666;23.264;2023-02-13T00:49:54;96097.75;;;-1.46;100.00
6345;BME280;3205;42.666;23.264;2023-02-13T00:52:22;96096.44;;;-1.37;100.00
6345;BME280;3205;42.666;23.264;2023-02-13T00:54:48;96102.16;;;-1.46;100.00
6345;BME280;3205;42.666;23.264;2023-02-13T00:57:15;96104.25;;;-1.54;100.00
6345;BME280;3205;42.666;23.264;2023-02-13T00:59:41;96101.38;;;-1.47;100.00
6345;BME280;3205;42.666;23.264;2023-02-13T01:02:08;96102.00;;;-1.51;100.00
6345;BME280;3205;42.666;23.264;2023-02-13T01:04:34;96106.25;;;-1.39;100.00
6345;BME280;3205;42.666;23.264;2023-02-13T01:07:01;96115.09;;;-1.28;100.00
6345;BME280;3205;42.666;23.264;2023-02-13T01:09:28;96110.06;;;-1.23;100.00
6345;BME280;3205;42.666;23.264;2023-02-13T01:11:54;96116.75;;;-1.16;100.00
6345;BME280;3205;42.666;23.264;2023-02-13T01:14:20;96106.72;;;-1.12;100.00
6345;BME280;3205;42.666;23.264;2023-02-13T01:16:46;96105.63;;;-0.87;100.00
6345;BME280;3205;42.666;23.264;2023-02-13T01:19:13;96100.66;;;-0.77;100.00
6345;BME280;3205;42.666;23.264;2023-02-13T01:21:39;96109.19;;;-0.59;100.00
6345;BME280;3205;42.666;23.264;2023-02-13T01:24:06;96109.66;;;-0.50;100.00
6345;BME280;3205;42.666;23.264;2023-02-13T01:26:32;96116.94;;;-0.41;100.00
6345;BME280;3205;42.666;23.264;2023-02-13T01:28:58;96117.06;;;-0.36;100.00
6345;BME280;3205;42.666;23.264;2023-02-13T01:31:25;96111.19;;;-0.31;100.00
6345;BME280;3205;42.666;23.264;2023-02-13T01:33:54;96120.69;;;-0.25;100.00
6345;BME280;3205;42.666;23.264;2023-02-13T01:36:20;96124.53;;;-0.16;100.00
6345;BME280;3205;42.666;23.264;2023-02-13T01:38:47;96124.78;;;-0.06;100.00
6345;BME280;3205;42.666;23.264;2023-02-13T01:41:14;96123.66;;;0.12;100.00
6345;BME280;3205;42.666;23.264;2023-02-13T01:43:46;96125.50;;;0.23;100.00
6345;BME280;3205;42.666;23.264;2023-02-13T01:46:16;96127.28;;;0.34;100.00
6345;BME280;3205;42.666;23.264;2023-02-13T01:48:42;96128.31;;;0.33;100.00
6345;BME280;3205;42.666;23.264;2023-02-13T01:51:13;96123.34;;;0.43;100.00
6345;BME280;3205;42.666;23.264;2023-02-13T01:53:42;96124.69;;;0.46;100.00
6345;BME280;3205;42.666;23.264;2023-02-13T01:56:13;96125.00;;;0.49;100.00
6345;BME280;3205;42.666;23.264;2023-02-13T01:58:45;96140.06;;;0.59;100.00
6345;BME280;3205;42.666;23.264;2023-02-13T02:01:13;96137.78;;;0.51;100.00
6345;BME280;3205;42.666;23.264;2023-02-13T02:03:42;96131.69;;;0.45;100.00
6345;BME280;3205;42.666;23.264;2023-02-13T02:06:17;96135.03;;;0.69;100.00
6345;BME280;3205;42.666;23.264;2023-02-13T02:08:48;96133.34;;;0.74;100.00
6345;BME280;3205;42.666;23.264;2023-02-13T02:11:21;96142.16;;;0.84;100.00
6345;BME280;3205;42.666;23.264;2023-02-13T02:13:51;96130.72;;;0.85;100.00
6345;BME280;3205;42.666;23.264;2023-02-13T02:16:19;96134.00;;;0.81;100.00
6345;BME280;3205;42.666;23.264;2023-02-13T02:18:45;96130.63;;;0.80;100.00
6345;BME280;3205;42.666;23.264;2023-02-13T02:24:41;96120.72;;;0.94;100.00
6345;BME280;3205;42.666;23.264;2023-02-13T02:27:45;96128.19;;;1.02;100.00
6345;BME280;3205;42.666;23.264;2023-02-13T02:30:44;96133.50;;;1.07;100.00
6345;BME280;3205;42.666;23.264;2023-02-13T02:33:22;96126.03;;;0.99;100.00
6345;BME280;3205;42.666;23.264;2023-02-13T02:36:02;96117.34;;;0.93;100.00
6345;BME280;3205;42.666;23.264;2023-02-13T02:38:42;96126.41;;;0.91;100.00
6345;BME280;3205;42.666;23.264;2023-02-13T02:41:14;96129.91;;;0.85;100.00
6345;BME280;3205;42.666;23.264;2023-02-13T02:44:10;96130.41;;;0.82;100.00
6345;BME280;3205;42.666;23.264;2023-02-13T02:46:50;96136.41;;;0.71;100.00
6345;BME280;3205;42.666;23.264;2023-02-13T02:49:49;96147.03;;;0.70;100.00
6345;BME280;3205;42.666;23.264;2023-02-13T02:52:28;96147.38;;;0.73;100.00
6345;BME280;3205;42.666;23.264;2023-02-13T02:55:03;96145.56;;;0.73;100.00
6345;BME280;3205;42.666;23.264;2023-02-13T02:57:37;96151.81;;;0.73;100.00
6345;BME280;3205;42.666;23.264;2023-02-13T03:00:24;96152.03;;;0.48;100.00
6345;BME280;3205;42.666;23.264;2023-02-13T03:03:14;96154.88;;;0.35;100.00
6345;BME280;3205;42.666;23.264;2023-02-13T03:06:01;96159.41;;;0.40;100.00
6345;BME280;3205;42.666;23.264;2023-02-13T03:08:35;96147.41;;;0.39;100.00
6345;BME280;3205;42.666;23.264;2023-02-13T03:11:20;96149.88;;;0.45;100.00
6345;BME280;3205;42.666;23.264;2023-02-13T03:14:05;96149.78;;;0.52;100.00
6345;BME280;3205;42.666;23.264;2023-02-13T03:16:32;96146.03;;;0.59;100.00
6345;BME280;3205;42.666;23.264;2023-02-13T03:19:23;96151.66;;;0.79;100.00
6345;BME280;3205;42.666;23.264;2023-02-13T03:22:15;96153.81;;;0.93;100.00
6345;BME280;3205;42.666;23.264;2023-02-13T03:24:54;96150.28;;;0.88;100.00
6345;BME280;3205;42.666;23.264;2023-02-13T03:27:32;96156.41;;;0.93;100.00
6345;BME280;3205;42.666;23.264;2023-02-13T03:30:33;96153.31;;;0.96;100.00
6345;BME280;3205;42.666;23.264;2023-02-13T03:33:06;96159.34;;;0.97;100.00
6345;BME280;3205;42.666;23.264;2023-02-13T03:35:41;96161.25;;;1.01;100.00
6345;BME280;3205;42.666;23.264;2023-02-13T03:38:37;96163.94;;;1.06;100.00
6345;BME280;3205;42.666;23.264;2023-02-13T03:41:13;96161.78;;;1.03;100.00
6345;BME280;3205;42.666;23.264;2023-02-13T03:43:49;96161.34;;;1.06;100.00
6345;BME280;3205;42.666;23.264;2023-02-13T03:46:18;96163.47;;;1.09;100.00
6345;BME280;3205;42.666;23.264;2023-02-13T03:48:46;96153.97;;;1.15;100.00
6345;BME280;3205;42.666;23.264;2023-02-13T03:51:35;96149.31;;;1.17;100.00
6345;BME280;3205;42.666;23.264;2023-02-13T03:54:11;96155.31;;;1.17;100.00
6345;BME280;3205;42.666;23.264;2023-02-13T03:56:42;96153.63;;;1.11;100.00
6345;BME280;3205;42.666;23.264;2023-02-13T03:59:30;96152.69;;;1.17;100.00
6345;BME280;3205;42.666;23.264;2023-02-13T04:02:01;96145.47;;;1.19;100.00
6345;BME280;3205;42.666;23.264;2023-02-13T04:04:40;96144.97;;;1.22;100.00
6345;BME280;3205;42.666;23.264;2023-02-13T04:07:14;96150.44;;;1.21;100.00
6345;BME280;3205;42.666;23.264;2023-02-13T04:09:55;96148.09;;;1.08;100.00
6345;BME280;3205;42.666;23.264;2023-02-13T04:12:27;96158.59;;;1.13;100.00
6345;BME280;3205;42.666;23.264;2023-02-13T04:15:02;96161.44;;;1.11;100.00
6345;BME280;3205;42.666;23.264;2023-02-13T04:17:32;96161.59;;;1.05;100.00
6345;BME280;3205;42.666;23.264;2023-02-13T04:20:01;96158.19;;;0.93;100.00
6345;BME280;3205;42.666;23.264;2023-02-13T04:22:28;96161.38;;;0.95;100.00
6345;BME280;3205;42.666;23.264;2023-02-13T04:24:55;96159.53;;;1.07;100.00
6345;BME280;3205;42.666;23.264;2023-02-13T04:27:24;96158.59;;;1.13;100.00
6345;BME280;3205;42.666;23.264;2023-02-13T04:29:52;96149.25;;;1.00;100.00
6345;BME280;3205;42.666;23.264;2023-02-13T04:32:18;96160.13;;;0.97;100.00
6345;BME280;3205;42.666;23.264;2023-02-13T04:34:45;96160.69;;;0.99;100.00
6345;BME280;3205;42.666;23.264;2023-02-13T04:37:11;96163.63;;;1.03;100.00
6345;BME280;3205;42.666;23.264;2023-02-13T04:39:37;96146.97;;;1.04;100.00
6345;BME280;3205;42.666;23.264;2023-02-13T04:42:04;96146.56;;;1.23;100.00
6345;BME280;3205;42.666;23.264;2023-02-13T04:44:30;96156.78;;;1.25;100.00
6345;BME280;3205;42.666;23.264;2023-02-13T04:46:56;96146.47;;;1.18;100.00
6345;BME280;3205;42.666;23.264;2023-02-13T04:49:22;96145.91;;;1.16;100.00
6345;BME280;3205;42.666;23.264;2023-02-13T04:51:48;96146.72;;;1.17;100.00
6345;BME280;3205;42.666;23.264;2023-02-13T04:54:14;96156.22;;;1.23;100.00
6345;BME280;3205;42.666;23.264;2023-02-13T04:56:40;96155.63;;;1.21;100.00
6345;BME280;3205;42.666;23.264;2023-02-13T04:59:08;96166.63;;;1.23;100.00
6345;BME280;3205;42.666;23.264;2023-02-13T05:01:34;96166.00;;;1.04;100.00
6345;BME280;3205;42.666;23.264;2023-02-13T05:04:01;96164.22;;;0.93;100.00
6345;BME280;3205;42.666;23.264;2023-02-13T05:06:27;96177.69;;;0.90;100.00
6345;BME280;3205;42.666;23.264;2023-02-13T05:08:54;96183.34;;;0.87;100.00
6345;BME280;3205;42.666;23.264;2023-02-13T05:11:20;96176.66;;;0.80;100.00
6345;BME280;3205;42.666;23.264;2023-02-13T05:13:46;96175.22;;;0.84;100.00
6345;BME280;3205;42.666;23.264;2023-02-13T05:16:13;96175.41;;;0.82;100.00
6345;BME280;3205;42.666;23.264;2023-02-13T05:18:39;96176.41;;;0.93;100.00
6345;BME280;3205;42.666;23.264;2023-02-13T05:21:05;96182.44;;;0.93;100.00
6345;BME280;3205;42.666;23.264;2023-02-13T05:23:49;96183.88;;;1.01;100.00
6345;BME280;3205;42.666;23.264;2023-02-13T05:26:15;96180.47;;;1.12;100.00
6345;BME280;3205;42.666;23.264;2023-02-13T05:28:44;96183.53;;;1.09;100.00
6345;BME280;3205;42.666;23.264;2023-02-13T05:31:29;96185.28;;;1.31;100.00
6345;BME280;3205;42.666;23.264;2023-02-13T05:33:55;96193.41;;;1.35;100.00
6345;BME280;3205;42.666;23.264;2023-02-13T05:36:21;96194.78;;;1.37;100.00
6345;BME280;3205;42.666;23.264;2023-02-13T05:38:48;96190.06;;;1.23;100.00
6345;BME280;3205;42.666;23.264;2023-02-13T05:41:14;96196.13;;;1.40;100.00
6345;BME280;3205;42.666;23.264;2023-02-13T05:43:42;96193.91;;;1.32;100.00
6345;BME280;3205;42.666;23.264;2023-02-13T05:46:09;96203.66;;;1.25;100.00
6345;BME280;3205;42.666;23.264;2023-02-13T05:48:36;96200.66;;;1.33;100.00
6345;BME280;3205;42.666;23.264;2023-02-13T05:51:03;96193.50;;;1.40;100.00
6345;BME280;3205;42.666;23.264;2023-02-13T05:53:29;96201.47;;;1.33;100.00
6345;BME280;3205;42.666;23.264;2023-02-13T05:55:55;96207.47;;;1.34;100.00
6345;BME280;3205;42.666;23.264;2023-02-13T05:58:21;96203.28;;;1.33;100.00
6345;BME280;3205;42.666;23.264;2023-02-13T06:00:48;96209.91;;;1.51;100.00
6345;BME280;3205;42.666;23.264;2023-02-13T06:03:14;96210.28;;;1.71;100.00
6345;BME280;3205;42.666;23.264;2023-02-13T06:05:41;96208.16;;;1.85;100.00
6345;BME280;3205;42.666;23.264;2023-02-13T06:08:07;96214.09;;;1.80;100.00
6345;BME280;3205;42.666;23.264;2023-02-13T06:10:33;96211.59;;;1.85;100.00
6345;BME280;3205;42.666;23.264;2023-02-13T06:12:59;96218.16;;;1.88;100.00
6345;BME280;3205;42.666;23.264;2023-02-13T06:15:27;96214.13;;;1.97;100.00
6345;BME280;3205;42.666;23.264;2023-02-13T06:17:53;96221.81;;;2.03;100.00
6345;BME280;3205;42.666;23.264;2023-02-13T06:20:21;96223.47;;;2.09;100.00
6345;BME280;3205;42.666;23.264;2023-02-13T06:22:48;96222.38;;;2.21;100.00
6345;BME280;3205;42.666;23.264;2023-02-13T06:25:15;96229.91;;;2.18;100.00
6345;BME280;3205;42.666;23.264;2023-02-13T06:27:41;96225.56;;;2.23;100.00
6345;BME280;3205;42.666;23.264;2023-02-13T06:30:09;96225.72;;;2.33;100.00
6345;BME280;3205;42.666;23.264;2023-02-13T06:32:35;96229.19;;;2.39;100.00
6345;BME280;3205;42.666;23.264;2023-02-13T06:35:01;96242.19;;;2.50;100.00
6345;BME280;3205;42.666;23.264;2023-02-13T06:37:28;96232.50;;;2.67;100.00
6345;BME280;3205;42.666;23.264;2023-02-13T06:39:55;96234.22;;;2.78;100.00
6345;BME280;3205;42.666;23.264;2023-02-13T06:42:21;96242.88;;;2.79;100.00
6345;BME280;3205;42.666;23.264;2023-02-13T06:44:47;96242.00;;;2.73;100.00
6345;BME280;3205;42.666;23.264;2023-02-13T06:47:15;96244.34;;;2.75;100.00
6345;BME280;3205;42.666;23.264;2023-02-13T06:49:41;96232.25;;;2.85;100.00
6345;BME280;3205;42.666;23.264;2023-02-13T06:52:07;96232.47;;;3.00;100.00
6345;BME280;3205;42.666;23.264;2023-02-13T06:54:34;96234.53;;;2.82;100.00
6345;BME280;3205;42.666;23.264;2023-02-13T06:57:01;96235.41;;;2.87;100.00
6345;BME280;3205;42.666;23.264;2023-02-13T06:59:29;96237.72;;;2.84;100.00
6345;BME280;3205;42.666;23.264;2023-02-13T07:01:55;96242.16;;;3.21;100.00
6345;BME280;3205;42.666;23.264;2023-02-13T07:04:22;96241.28;;;3.32;100.00
6345;BME280;3205;42.666;23.264;2023-02-13T07:06:48;96249.34;;;3.30;100.00
6345;BME280;3205;42.666;23.264;2023-02-13T07:09:15;96240.34;;;3.43;100.00
6345;BME280;3205;42.666;23.264;2023-02-13T07:11:41;96237.56;;;3.49;100.00
6345;BME280;3205;42.666;23.264;2023-02-13T07:14:08;96236.75;;;3.70;100.00
6345;BME280;3205;42.666;23.264;2023-02-13T07:16:35;96247.75;;;3.72;100.00
6345;BME280;3205;42.666;23.264;2023-02-13T07:19:01;96244.50;;;3.60;100.00
6345;BME280;3205;42.666;23.264;2023-02-13T07:21:27;96244.28;;;3.66;100.00
6345;BME280;3205;42.666;23.264;2023-02-13T07:23:53;96251.91;;;3.68;100.00
6345;BME280;3205;42.666;23.264;2023-02-13T07:26:19;96255.78;;;3.87;100.00
6345;BME280;3205;42.666;23.264;2023-02-13T07:28:45;96257.06;;;4.11;100.00
6345;BME280;3205;42.666;23.264;2023-02-13T07:31:12;96256.63;;;4.19;100.00
6345;BME280;3205;42.666;23.264;2023-02-13T07:33:38;96262.88;;;4.13;100.00
6345;BME280;3205;42.666;23.264;2023-02-13T07:36:05;96250.44;;;3.98;100.00
6345;BME280;3205;42.666;23.264;2023-02-13T07:38:32;96254.03;;;4.19;100.00
6345;BME280;3205;42.666;23.264;2023-02-13T07:40:58;96255.25;;;4.11;100.00
6345;BME280;3205;42.666;23.264;2023-02-13T07:43:25;96263.25;;;4.00;100.00
6345;BME280;3205;42.666;23.264;2023-02-13T07:45:51;96262.69;;;3.98;100.00
6345;BME280;3205;42.666;23.264;2023-02-13T07:48:20;96255.97;;;4.02;100.00
6345;BME280;3205;42.666;23.264;2023-02-13T07:50:48;96266.66;;;4.00;100.00
6345;BME280;3205;42.666;23.264;2023-02-13T07:53:15;96256.44;;;3.99;100.00
6345;BME280;3205;42.666;23.264;2023-02-13T07:55:41;96254.97;;;4.08;100.00
6345;BME280;3205;42.666;23.264;2023-02-13T07:58:08;96257.19;;;4.21;100.00
6345;BME280;3205;42.666;23.264;2023-02-13T08:00:34;96253.63;;;4.32;100.00
6345;BME280;3205;42.666;23.264;2023-02-13T08:03:02;96257.50;;;4.55;100.00
6345;BME280;3205;42.666;23.264;2023-02-13T08:05:30;96265.22;;;4.67;100.00
6345;BME280;3205;42.666;23.264;2023-02-13T08:07:57;96256.84;;;4.70;100.00
6345;BME280;3205;42.666;23.264;2023-02-13T08:10:23;96263.66;;;4.71;100.00
6345;BME280;3205;42.666;23.264;2023-02-13T08:13:08;96264.63;;;4.60;100.00
6345;BME280;3205;42.666;23.264;2023-02-13T08:15:34;96262.06;;;4.70;100.00
6345;BME280;3205;42.666;23.264;2023-02-13T08:18:00;96257.78;;;4.90;100.00
6345;BME280;3205;42.666;23.264;2023-02-13T08:20:27;96253.72;;;5.09;100.00
6345;BME280;3205;42.666;23.264;2023-02-13T08:23:01;96259.25;;;5.13;100.00
6345;BME280;3205;42.666;23.264;2023-02-13T08:25:27;96257.28;;;4.93;100.00
6345;BME280;3205;42.666;23.264;2023-02-13T08:27:54;96254.47;;;5.05;100.00
6345;BME280;3205;42.666;23.264;2023-02-13T08:30:20;96258.44;;;5.12;100.00
6345;BME280;3205;42.666;23.264;2023-02-13T08:32:47;96260.56;;;5.15;100.00
6345;BME280;3205;42.666;23.264;2023-02-13T08:35:13;96255.13;;;5.21;100.00
6345;BME280;3205;42.666;23.264;2023-02-13T08:37:39;96254.63;;;5.29;100.00
6345;BME280;3205;42.666;23.264;2023-02-13T08:40:07;96258.34;;;5.43;100.00
6345;BME280;3205;42.666;23.264;2023-02-13T08:42:34;96259.47;;;5.52;100.00
6345;BME280;3205;42.666;23.264;2023-02-13T08:45:02;96259.25;;;5.64;100.00
6345;BME280;3205;42.666;23.264;2023-02-13T08:47:29;96263.19;;;5.66;100.00
6345;BME280;3205;42.666;23.264;2023-02-13T08:49:56;96268.81;;;5.85;100.00
6345;BME280;3205;42.666;23.264;2023-02-13T08:52:23;96265.66;;;5.88;100.00
6345;BME280;3205;42.666;23.264;2023-02-13T08:54:49;96267.22;;;5.79;100.00
6345;BME280;3205;42.666;23.264;2023-02-13T08:57:16;96264.25;;;5.70;100.00
6345;BME280;3205;42.666;23.264;2023-02-13T08:59:43;96263.47;;;5.70;100.00
6345;BME280;3205;42.666;23.264;2023-02-13T09:02:09;96266.47;;;5.83;100.00
6345;BME280;3205;42.666;23.264;2023-02-13T09:04:36;96265.16;;;5.90;100.00
6345;BME280;3205;42.666;23.264;2023-02-13T09:07:02;96254.13;;;5.88;100.00
6345;BME280;3205;42.666;23.264;2023-02-13T09:09:28;96262.56;;;5.95;100.00
6345;BME280;3205;42.666;23.264;2023-02-13T09:11:54;96255.28;;;6.27;100.00
6345;BME280;3205;42.666;23.264;2023-02-13T09:14:22;96265.06;;;6.96;100.00
6345;BME280;3205;42.666;23.264;2023-02-13T09:16:49;96255.25;;;7.46;100.00
6345;BME280;3205;42.666;23.264;2023-02-13T09:19:15;96254.94;;;7.63;100.00
6345;BME280;3205;42.666;23.264;2023-02-13T09:21:41;96263.00;;;7.86;100.00
6345;BME280;3205;42.666;23.264;2023-02-13T09:24:08;96256.66;;;8.84;100.00
6345;BME280;3205;42.666;23.264;2023-02-13T09:26:34;96248.31;;;9.28;100.00
6345;BME280;3205;42.666;23.264;2023-02-13T09:29:00;96245.47;;;8.96;93.08
6345;BME280;3205;42.666;23.264;2023-02-13T09:31:27;96248.28;;;9.33;86.60
6345;BME280;3205;42.666;23.264;2023-02-13T09:33:53;96248.03;;;10.41;76.86
6345;BME280;3205;42.666;23.264;2023-02-13T09:36:20;96248.16;;;12.04;65.49
6345;BME280;3205;42.666;23.264;2023-02-13T09:38:51;96241.31;;;13.69;56.06
6345;BME280;3205;42.666;23.264;2023-02-13T09:41:20;96234.03;;;14.81;51.23
6345;BME280;3205;42.666;23.264;2023-02-13T09:43:52;96239.50;;;14.34;50.45
6345;BME280;3205;42.666;23.264;2023-02-13T09:46:21;96239.84;;;13.25;51.82
6345;BME280;3205;42.666;23.264;2023-02-13T09:48:52;96233.00;;;12.66;52.85
6345;BME280;3205;42.666;23.264;2023-02-13T09:51:20;96226.88;;;11.69;56.36
6345;BME280;3205;42.666;23.264;2023-02-13T09:53:52;96223.78;;;11.35;59.55
6345;BME280;3205;42.666;23.264;2023-02-13T09:56:22;96224.69;;;11.97;57.90
6345;BME280;3205;42.666;23.264;2023-02-13T09:58:58;96225.50;;;11.84;58.05
6345;BME280;3205;42.666;23.264;2023-02-13T10:01:29;96217.53;;;10.99;58.82
6345;BME280;3205;42.666;23.264;2023-02-13T10:04:20;96211.66;;;10.52;62.56
6345;BME280;3205;42.666;23.264;2023-02-13T10:06:52;96195.59;;;10.48;64.96
6345;BME280;3205;42.666;23.264;2023-02-13T10:09:28;96193.25;;;10.29;65.74
6345;BME280;3205;42.666;23.264;2023-02-13T10:12:25;96199.44;;;10.01;67.07
6345;BME280;3205;42.666;23.264;2023-02-13T10:15:05;96198.69;;;9.54;70.92
6345;BME280;3205;42.666;23.264;2023-02-13T10:17:40;96196.00;;;9.35;74.12
6345;BME280;3205;42.666;23.264;2023-02-13T10:20:17;96188.03;;;8.88;75.17
6345;BME280;3205;42.666;23.264;2023-02-13T10:22:51;96182.34;;;7.47;87.28
6345;BME280;3205;42.666;23.264;2023-02-13T10:25:24;96171.69;;;7.04;99.71
6345;BME280;3205;42.666;23.264;2023-02-13T10:27:54;96171.03;;;7.51;100.00
6345;BME280;3205;42.666;23.264;2023-02-13T10:30:28;96167.22;;;7.72;99.39
6345;BME280;3205;42.666;23.264;2023-02-13T10:32:59;96157.28;;;7.64;97.81
6345;BME280;3205;42.666;23.264;2023-02-13T10:35:48;96155.63;;;7.78;98.29
6345;BME280;3205;42.666;23.264;2023-02-13T10:38:18;96160.94;;;7.68;95.01
6345;BME280;3205;42.666;23.264;2023-02-13T10:41:14;96149.94;;;7.56;96.34
6345;BME280;3205;42.666;23.264;2023-02-13T10:43:51;96152.03;;;7.59;98.18
6345;BME280;3205;42.666;23.264;2023-02-13T10:46:28;96142.63;;;7.43;100.00
6345;BME280;3205;42.666;23.264;2023-02-13T10:51:57;96134.63;;;7.10;99.98
6345;BME280;3205;42.666;23.264;2023-02-13T10:54:39;96133.31;;;7.08;100.00
6345;BME280;3205;42.666;23.264;2023-02-13T10:57:18;96132.47;;;7.22;100.00
6345;BME280;3205;42.666;23.264;2023-02-13T11:00:06;96125.34;;;7.23;100.00
6345;BME280;3205;42.666;23.264;2023-02-13T11:02:35;96126.97;;;7.09;100.00
6345;BME280;3205;42.666;23.264;2023-02-13T11:05:11;96114.13;;;7.07;100.00
6345;BME280;3205;42.666;23.264;2023-02-13T11:07:40;96114.59;;;7.19;100.00
6345;BME280;3205;42.666;23.264;2023-02-13T11:10:16;96114.00;;;7.37;98.38
6345;BME280;3205;42.666;23.264;2023-02-13T11:12:42;96111.06;;;7.43;96.81
6345;BME280;3205;42.666;23.264;2023-02-13T11:15:20;96109.72;;;7.46;96.67
6345;BME280;3205;42.666;23.264;2023-02-13T11:17:46;96104.53;;;7.36;94.68
6345;BME280;3205;42.666;23.264;2023-02-13T11:20:26;96099.81;;;7.28;96.72
6345;BME280;3205;42.666;23.264;2023-02-13T11:22:54;96108.50;;;7.34;98.62
6345;BME280;3205;42.666;23.264;2023-02-13T11:25:22;96097.69;;;7.35;97.84
6345;BME280;3205;42.666;23.264;2023-02-13T11:28:03;96084.88;;;7.19;98.45
6345;BME280;3205;42.666;23.264;2023-02-13T11:30:33;96084.38;;;7.12;99.09
6345;BME280;3205;42.666;23.264;2023-02-13T11:33:00;96077.47;;;7.31;99.42
6345;BME280;3205;42.666;23.264;2023-02-13T11:35:29;96075.88;;;7.35;96.75
6345;BME280;3205;42.666;23.264;2023-02-13T11:38:21;96068.47;;;7.41;96.44
6345;BME280;3205;42.666;23.264;2023-02-13T11:40:50;96058.13;;;7.07;95.85
6345;BME280;3205;42.666;23.264;2023-02-13T11:43:26;96056.47;;;7.21;97.32
6345;BME280;3205;42.666;23.264;2023-02-13T11:46:02;96054.84;;;7.30;93.30
6345;BME280;3205;42.666;23.264;2023-02-13T11:48:29;96054.88;;;7.25;91.73
6345;BME280;3205;42.666;23.264;2023-02-13T11:50:55;96041.44;;;7.26;92.81
6345;BME280;3205;42.666;23.264;2023-02-13T11:53:26;96035.28;;;7.45;90.54
6345;BME280;3205;42.666;23.264;2023-02-13T11:56:07;96036.28;;;7.54;92.14
6345;BME280;3205;42.666;23.264;2023-02-13T11:58:33;96033.91;;;7.58;87.67
6345;BME280;3205;42.666;23.264;2023-02-13T12:01:09;96021.59;;;7.48;89.22
6345;BME280;3205;42.666;23.264;2023-02-13T12:03:36;96021.44;;;7.30;87.57
6345;BME280;3205;42.666;23.264;2023-02-13T12:06:10;96007.38;;;7.49;85.35
6345;BME280;3205;42.666;23.264;2023-02-13T12:08:39;96004.53;;;7.41;88.01
6345;BME280;3205;42.666;23.264;2023-02-13T12:11:16;96011.94;;;7.34;89.16
6345;BME280;3205;42.666;23.264;2023-02-13T12:13:46;96006.97;;;7.33;90.66
6345;BME280;3205;42.666;23.264;2023-02-13T12:16:22;96004.53;;;7.41;90.04
6345;BME280;3205;42.666;23.264;2023-02-13T12:18:53;96005.53;;;7.50;89.26
6345;BME280;3205;42.666;23.264;2023-02-13T12:21:34;96002.03;;;7.59;87.49
6345;BME280;3205;42.666;23.264;2023-02-13T12:24:13;96006.53;;;7.54;84.18
6345;BME280;3205;42.666;23.264;2023-02-13T12:26:48;96000.47;;;7.58;84.49
6345;BME280;3205;42.666;23.264;2023-02-13T12:29:43;96007.59;;;7.58;81.85
6345;BME280;3205;42.666;23.264;2023-02-13T12:32:17;96015.81;;;7.46;81.04
6345;BME280;3205;42.666;23.264;2023-02-13T12:35:07;95995.53;;;7.52;80.47
6345;BME280;3205;42.666;23.264;2023-02-13T12:37:51;96001.13;;;7.40;81.27
6345;BME280;3205;42.666;23.264;2023-02-13T12:40:40;95993.28;;;7.36;82.61
6345;BME280;3205;42.666;23.264;2023-02-13T12:43:33;95989.69;;;7.22;85.16
6345;BME280;3205;42.666;23.264;2023-02-13T12:46:05;95985.56;;;7.06;87.79
6345;BME280;3205;42.666;23.264;2023-02-13T12:48:40;95974.44;;;7.19;88.34
6345;BME280;3205;42.666;23.264;2023-02-13T12:51:20;95977.53;;;7.26;87.56
6345;BME280;3205;42.666;23.264;2023-02-13T12:54:12;95983.00;;;7.34;86.80
6345;BME280;3205;42.666;23.264;2023-02-13T12:57:01;95977.22;;;7.37;83.94
6345;BME280;3205;42.666;23.264;2023-02-13T12:59:41;95970.13;;;7.33;84.76
6345;BME280;3205;42.666;23.264;2023-02-13T13:02:39;95967.22;;;7.34;81.53
6345;BME280;3205;42.666;23.264;2023-02-13T13:05:26;95962.19;;;7.37;84.42
6345;BME280;3205;42.666;23.264;2023-02-13T13:08:14;95962.63;;;7.54;83.96
6345;BME280;3205;42.666;23.264;2023-02-13T13:10:54;95958.78;;;7.37;80.24
6345;BME280;3205;42.666;23.264;2023-02-13T13:13:36;95961.72;;;7.36;80.81
6345;BME280;3205;42.666;23.264;2023-02-13T13:16:13;95959.91;;;7.31;82.78
6345;BME280;3205;42.666;23.264;2023-02-13T13:18:53;95946.75;;;7.26;83.47
6345;BME280;3205;42.666;23.264;2023-02-13T13:21:30;95953.06;;;7.30;83.96
6345;BME280;3205;42.666;23.264;2023-02-13T13:24:00;95942.34;;;7.17;85.83
6345;BME280;3205;42.666;23.264;2023-02-13T13:26:33;95942.59;;;7.20;85.27
6345;BME280;3205;42.666;23.264;2023-02-13T13:29:05;95937.31;;;7.25;85.93
6345;BME280;3205;42.666;23.264;2023-02-13T13:31:35;95941.78;;;7.25;86.77
6345;BME280;3205;42.666;23.264;2023-02-13T13:34:05;95934.38;;;7.32;86.28
6345;BME280;3205;42.666;23.264;2023-02-13T13:36:37;95944.13;;;7.31;84.20
6345;BME280;3205;42.666;23.264;2023-02-13T13:39:17;95938.44;;;7.14;85.03
6345;BME280;3205;42.666;23.264;2023-02-13T13:41:51;95939.94;;;7.25;85.56